Terminal Aerodrome Forecast
Issued by NWS

Home | Current Version | Previous Version | Text Only | Print | Product List | Glossary On
Versions: 1 2 3 4 5 6 7 8 9 10 11 12 13 14 15 16 17
162
FTUS41 KBTV 220641 AAA
TAFMPV
TAF AMD
KMPV 220641Z 2207/2306 00000KT 2SM BR OVC002
      TEMPO 2207/2211 1SM BR OVC004
     FM221200 00000KT 3SM BR OVC006
     FM221500 00000KT P6SM OVC011
     FM230300 12004KT P6SM OVC025=

USA.gov is the U.S. government's official web portal to all federal, state and local government web resources and services.